Time;durP1;ratioP1;P1;durP2;ratioP2;P2;SDS_P1;SDS_P2;PMS_P1;PMS_P2;Temp;Humidity;BMP_temperature;BMP_pressure;BME280_temperature;BME280_humidity;BME280_pressure;Samples;Min_cycle;Max_cycle;Signal;HPM_P1;HPM_P2
2022/10/05 00:00:15;;;;;;;6.03;4.33;;;;;;;12.05;79.49;96294.84;4995976;28;20207;-79
2022/10/05 00:02:41;;;;;;;5.17;4.67;;;;;;;12.01;79.13;96292.78;4995236;28;20192;-80
2022/10/05 00:05:20;;;;;;;5.83;4.53;;;;;;;11.92;79.26;96297.19;4996064;28;20207;-80
2022/10/05 00:07:46;;;;;;;4.90;4.43;;;;;;;11.84;79.26;96291.22;4995372;28;20215;-80
2022/10/05 00:10:16;;;;;;;4.60;4.20;;;;;;;11.84;79.15;96289.44;4995811;28;20562;-80
2022/10/05 00:12:44;;;;;;;5.03;3.97;;;;;;;11.82;79.46;96288.81;4995044;28;20215;-80
2022/10/05 00:15:12;;;;;;;5.17;4.67;;;;;;;11.75;79.83;96286.03;4996055;28;20372;-80
2022/10/05 00:17:41;;;;;;;4.73;4.33;;;;;;;11.78;79.80;96284.94;4995816;28;20220;-80
2022/10/05 00:20:20;;;;;;;4.63;4.23;;;;;;;11.79;79.79;96263.34;4996186;28;20226;-80
2022/10/05 00:22:47;;;;;;;5.73;4.83;;;;;;;11.81;79.29;96266.56;4995257;28;20698;-80
2022/10/05 00:25:16;;;;;;;6.23;5.13;;;;;;;11.83;79.20;96262.03;4995964;28;20245;-80
2022/10/05 00:27:45;;;;;;;5.33;4.63;;;;;;;11.87;79.22;96250.41;4989562;28;20227;-80
2022/10/05 00:30:14;;;;;;;4.97;4.20;;;;;;;11.80;79.59;96246.88;4995858;28;20218;-80
2022/10/05 00:32:43;;;;;;;5.13;4.23;;;;;;;11.85;79.47;96242.03;4994473;28;20219;-80
2022/10/05 00:35:10;;;;;;;5.33;4.13;;;;;;;11.93;79.63;96239.41;4996615;28;20192;-79
2022/10/05 00:37:37;;;;;;;5.07;3.90;;;;;;;12.00;79.99;96236.97;4996385;28;20216;-79
2022/10/05 00:40:15;;;;;;;4.20;3.37;;;;;;;12.04;80.08;96239.03;4996556;28;20208;-79
2022/10/05 00:42:52;;;;;;;4.87;3.60;;;;;;;12.06;80.57;96229.34;4996756;28;20206;-79
2022/10/05 00:45:23;;;;;;;3.20;2.90;;;;;;;12.07;80.49;96230.97;4996224;28;20206;-79
2022/10/05 00:48:00;;;;;;;3.97;3.23;;;;;;;12.10;80.83;96237.56;4996331;28;20672;-80
2022/10/05 00:50:55;;;;;;;4.20;3.73;;;;;;;12.18;80.28;96232.34;4995309;28;20199;-80
2022/10/05 00:53:38;;;;;;;3.50;3.20;;;;;;;12.20;80.05;96234.75;4993071;28;20207;-80
2022/10/05 00:56:14;;;;;;;3.60;3.30;;;;;;;12.25;79.82;96229.91;4990363;28;20495;-80
2022/10/05 00:58:57;;;;;;;4.10;3.70;;;;;;;12.16;80.65;96233.47;4995724;28;20218;-80
2022/10/05 01:01:30;;;;;;;4.17;3.50;;;;;;;12.14;80.49;96236.22;4994239;28;20195;-80
2022/10/05 01:04:06;;;;;;;3.70;3.40;;;;;;;12.09;80.82;96231.59;4989502;28;20199;-80
2022/10/05 01:06:40;;;;;;;4.30;3.80;;;;;;;12.13;80.05;96224.28;4994211;28;20719;-80
2022/10/05 01:09:15;;;;;;;3.23;3.00;;;;;;;12.12;80.11;96224.50;4994895;28;20199;-80
2022/10/05 01:11:51;;;;;;;3.50;3.13;;;;;;;12.18;79.99;96219.44;4994319;28;20218;-79
2022/10/05 01:14:26;;;;;;;4.10;3.43;;;;;;;12.21;79.53;96229.44;4994971;28;20215;-79
2022/10/05 01:16:58;;;;;;;5.10;3.30;;;;;;;12.23;79.01;96219.72;4994364;28;20210;-80
2022/10/05 01:19:57;;;;;;;3.33;3.03;;;;;;;12.19;78.97;96217.66;4994940;28;20195;-80
2022/10/05 01:22:35;;;;;;;4.53;3.00;;;;;;;12.11;79.12;96215.94;4992072;28;20223;-80
2022/10/05 01:25:18;;;;;;;3.00;2.80;;;;;;;11.98;79.78;96208.75;4995179;28;20212;-80
2022/10/05 01:27:54;;;;;;;2.90;2.70;;;;;;;11.96;80.21;96212.47;4993883;28;20588;-80
2022/10/05 01:30:22;;;;;;;3.17;2.87;;;;;;;12.01;80.04;96202.44;4994701;28;20200;-80
2022/10/05 01:32:56;;;;;;;2.97;2.47;;;;;;;11.99;79.94;96201.81;4995095;28;20301;-80
2022/10/05 01:35:36;;;;;;;3.33;2.60;;;;;;;12.07;79.60;96207.72;4995500;28;20357;-80
2022/10/05 01:38:18;;;;;;;2.97;2.67;;;;;;;12.14;78.89;96204.44;4990141;28;20203;-80
2022/10/05 01:40:54;;;;;;;4.03;2.30;;;;;;;12.13;78.78;96208.00;4992521;28;20195;-80
2022/10/05 01:43:30;;;;;;;2.57;2.37;;;;;;;12.12;78.43;96204.66;4992211;28;20207;-80
2022/10/05 01:46:06;;;;;;;3.83;2.30;;;;;;;12.06;79.24;96195.81;4988788;28;20215;-80
2022/10/05 01:48:42;;;;;;;2.67;2.40;;;;;;;12.01;79.14;96198.06;4995357;28;20203;-80
2022/10/05 01:51:18;;;;;;;2.77;2.50;;;;;;;12.02;79.62;96202.28;4994981;28;20199;-80
2022/10/05 01:53:57;;;;;;;3.20;3.00;;;;;;;11.98;79.72;96200.19;4995388;28;20199;-80
2022/10/05 01:56:32;;;;;;;2.87;2.57;;;;;;;12.05;79.64;96201.94;4994342;28;20223;-80
2022/10/05 01:59:14;;;;;;;5.83;2.70;;;;;;;12.07;79.21;96200.00;4989438;28;20612;-79
2022/10/05 02:01:48;;;;;;;5.60;2.60;;;;;;;12.03;79.40;96196.13;4994422;28;20201;-79
2022/10/05 02:04:18;;;;;;;2.97;2.53;;;;;;;12.08;79.17;96193.84;4995252;28;20209;-80
2022/10/05 02:06:49;;;;;;;3.30;2.60;;;;;;;12.05;79.25;96201.94;4992599;28;20683;-79
2022/10/05 02:09:20;;;;;;;3.23;2.57;;;;;;;12.04;79.35;96191.78;4994693;28;20207;-80
2022/10/05 02:11:52;;;;;;;4.50;2.50;;;;;;;12.00;79.30;96186.16;4993522;28;20222;-80
2022/10/05 02:14:25;;;;;;;6.17;2.90;;;;;;;12.05;79.35;96183.88;4994419;28;20207;-79
2022/10/05 02:16:54;;;;;;;4.60;2.47;;;;;;;12.04;79.26;96176.28;4986912;28;20219;-78
2022/10/05 02:19:25;;;;;;;2.73;2.50;;;;;;;12.05;79.30;96178.72;4993980;28;20199;-79
2022/10/05 02:21:59;;;;;;;2.73;2.30;;;;;;;12.03;79.26;96179.84;4992551;28;20211;-80
2022/10/05 02:24:32;;;;;;;5.60;2.40;;;;;;;12.07;78.77;96169.00;4995139;28;20611;-80
2022/10/05 02:26:58;;;;;;;3.83;2.13;;;;;;;12.10;78.88;96171.25;4988098;28;20222;-79
2022/10/05 02:29:32;;;;;;;3.63;1.97;;;;;;;12.07;79.13;96174.19;4994068;28;20199;-80
2022/10/05 02:32:03;;;;;;;3.23;2.03;;;;;;;12.12;79.00;96165.94;4988664;28;20219;-80
2022/10/05 02:34:35;;;;;;;3.33;2.30;;;;;;;12.09;79.12;96171.44;4994855;28;20200;-79
2022/10/05 02:37:16;;;;;;;2.67;2.30;;;;;;;12.05;79.56;96167.56;4993452;28;20292;-80
2022/10/05 02:39:51;;;;;;;4.70;2.40;;;;;;;12.04;79.58;96171.13;4994693;28;20206;-80
2022/10/05 02:42:28;;;;;;;4.77;2.33;;;;;;;11.93;79.69;96174.88;4994814;28;20203;-80
2022/10/05 02:45:06;;;;;;;2.50;2.30;;;;;;;11.94;79.42;96171.34;4993522;28;20207;-80
2022/10/05 02:47:40;;;;;;;2.60;2.10;;;;;;;11.86;79.21;96158.50;4993776;28;20222;-80
2022/10/05 02:50:15;;;;;;;3.53;2.20;;;;;;;11.77;79.39;96156.91;4989586;28;20207;-80
2022/10/05 02:52:53;;;;;;;4.63;2.10;;;;;;;11.71;79.89;96142.91;4995358;28;20227;-80
2022/10/05 02:55:28;;;;;;;2.60;2.30;;;;;;;11.69;80.25;96154.38;4996063;28;20195;-79
2022/10/05 02:58:01;;;;;;;3.60;2.00;;;;;;;11.69;80.17;96154.38;4995679;28;20227;-80
2022/10/05 03:00:33;;;;;;;2.70;2.03;;;;;;;11.66;80.27;96160.66;4995899;28;20203;-79
2022/10/05 03:03:05;;;;;;;2.33;2.13;;;;;;;11.73;79.77;96156.44;4989932;28;20575;-79
2022/10/05 03:05:37;;;;;;;3.30;2.10;;;;;;;11.80;79.51;96161.75;4995393;28;20196;-79
2022/10/05 03:08:09;;;;;;;4.10;2.20;;;;;;;11.82;79.87;96164.16;4990470;28;20594;-80
2022/10/05 03:10:43;;;;;;;2.47;1.77;;;;;;;11.84;79.81;96160.44;4995539;28;20196;-79
2022/10/05 03:13:17;;;;;;;2.83;1.83;;;;;;;11.90;79.25;96174.44;4995714;28;20231;-79
2022/10/05 03:16:02;;;;;;;2.70;1.90;;;;;;;11.88;79.57;96164.28;4994837;28;20199;-79
2022/10/05 03:18:42;;;;;;;2.97;2.03;;;;;;;11.87;79.52;96164.47;4994556;28;20208;-79
2022/10/05 03:21:22;;;;;;;2.23;1.93;;;;;;;11.91;79.12;96166.53;4990246;28;20203;-80
2022/10/05 03:24:01;;;;;;;3.17;2.00;;;;;;;11.93;79.18;96167.16;4994151;28;20195;-79
2022/10/05 03:26:38;;;;;;;1.87;1.77;;;;;;;11.96;79.16;96166.00;4994509;28;20242;-79
2022/10/05 03:29:14;;;;;;;2.00;1.80;;;;;;;11.99;79.24;96169.06;4988206;28;20603;-80
2022/10/05 03:31:48;;;;;;;1.90;1.80;;;;;;;12.06;79.15;96164.03;4995581;28;20242;-79
2022/10/05 03:34:19;;;;;;;3.10;1.80;;;;;;;12.07;78.89;96161.28;4997824;28;20610;-79
2022/10/05 03:36:54;;;;;;;3.20;1.90;;;;;;;12.11;78.91;96164.31;4997308;28;20215;-79
2022/10/05 03:39:26;;;;;;;1.73;1.57;;;;;;;12.13;78.76;96164.13;4997345;28;20203;-79
2022/10/05 03:42:02;;;;;;;2.07;1.87;;;;;;;12.12;78.79;96170.28;4996665;28;20195;-80
2022/10/05 03:44:42;;;;;;;3.77;1.80;;;;;;;12.09;78.77;96172.22;4997538;28;20206;-80
2022/10/05 03:47:17;;;;;;;1.70;1.60;;;;;;;12.12;78.82;96165.94;4998674;28;20229;-80
2022/10/05 03:49:58;;;;;;;1.67;1.57;;;;;;;12.17;78.93;96161.03;4998011;28;20199;-80
2022/10/05 03:52:31;;;;;;;3.00;1.77;;;;;;;12.19;78.79;96163.44;4996778;28;20905;-80
2022/10/05 03:55:03;;;;;;;1.83;1.70;;;;;;;12.17;78.77;96155.06;4986973;28;20195;-79
2022/10/05 03:57:34;;;;;;;1.50;1.40;;;;;;;12.15;78.66;96157.00;4994208;28;20283;-79
2022/10/05 04:00:05;;;;;;;2.00;1.50;;;;;;;12.06;78.95;96156.28;4996633;28;20200;-79
2022/10/05 04:02:40;;;;;;;1.80;1.70;;;;;;;11.97;78.92;96155.50;4996549;28;20211;-79
2022/10/05 04:05:15;;;;;;;3.10;1.93;;;;;;;11.89;78.76;96165.09;4991264;28;20202;-79
2022/10/05 04:07:46;;;;;;;2.27;2.00;;;;;;;11.87;78.42;96164.47;4996811;28;20219;-80
2022/10/05 04:10:18;;;;;;;1.80;1.70;;;;;;;11.80;78.32;96160.94;4997699;28;20288;-79
2022/10/05 04:12:50;;;;;;;2.47;1.93;;;;;;;11.72;78.88;96156.63;4997832;28;20227;-79
2022/10/05 04:15:23;;;;;;;1.80;1.70;;;;;;;11.59;79.52;96151.19;4997910;28;20200;-79
2022/10/05 04:17:57;;;;;;;1.73;1.63;;;;;;;11.64;79.50;96154.88;4997103;28;20407;-79
2022/10/05 04:20:29;;;;;;;1.90;1.80;;;;;;;11.69;79.33;96147.44;4996574;28;20204;-79
2022/10/05 04:23:03;;;;;;;1.87;1.50;;;;;;;11.73;79.43;96147.91;4995614;28;20668;-79
2022/10/05 04:25:34;;;;;;;2.20;1.70;;;;;;;11.68;79.41;96148.41;4997107;28;20191;-79
2022/10/05 04:28:10;;;;;;;2.17;1.97;;;;;;;11.70;79.47;96155.97;4995492;28;20203;-79
2022/10/05 04:30:40;;;;;;;2.03;1.60;;;;;;;11.78;79.17;96148.22;4995524;28;20583;-79
2022/10/05 04:33:11;;;;;;;4.17;1.90;;;;;;;11.79;79.46;96144.66;4994788;28;20230;-79
2022/10/05 04:35:53;;;;;;;1.73;1.60;;;;;;;11.83;78.92;96147.72;4997603;28;20203;-80
2022/10/05 04:38:30;;;;;;;2.00;1.77;;;;;;;11.89;78.68;96145.25;4996810;28;20203;-81
2022/10/05 04:41:09;;;;;;;3.00;1.80;;;;;;;11.84;78.59;96147.53;4995588;28;20198;-81
2022/10/05 04:43:48;;;;;;;1.60;1.50;;;;;;;11.85;78.78;96154.31;4995177;28;20679;-80
2022/10/05 04:46:30;;;;;;;2.70;1.43;;;;;;;11.85;78.62;96156.88;4997947;28;20378;-81
2022/10/05 04:49:13;;;;;;;2.23;1.73;;;;;;;11.79;78.33;96151.59;4990816;28;20200;-81
2022/10/05 04:51:48;;;;;;;1.70;1.60;;;;;;;11.71;78.74;96150.66;4994167;28;20207;-80
2022/10/05 04:54:25;;;;;;;1.87;1.40;;;;;;;11.72;79.31;96160.00;4998843;28;20202;-80
2022/10/05 04:56:57;;;;;;;1.90;1.70;;;;;;;11.74;78.84;96155.44;4998250;28;20230;-80
2022/10/05 04:59:43;;;;;;;1.90;1.80;;;;;;;11.72;79.05;96151.47;4997531;28;20203;-80
2022/10/05 05:02:22;;;;;;;4.57;2.70;;;;;;;11.66;81.25;96152.94;4978893;28;20203;-80
2022/10/05 05:05:08;;;;;;;4.80;2.50;;;;;;;11.63;81.16;96165.34;4979761;28;20296;-80
2022/10/05 05:07:44;;;;;;;6.67;5.67;;;;;;;11.68;79.55;96170.81;4994694;28;20227;-80
2022/10/05 05:10:35;;;;;;;15.27;12.87;;;;;;;11.68;78.88;96175.97;4997108;28;20553;-80
2022/10/05 05:13:15;;;;;;;6.27;4.57;;;;;;;11.64;78.60;96167.75;4998179;28;20254;-80
2022/10/05 05:15:49;;;;;;;4.87;2.27;;;;;;;11.75;78.01;96172.53;4998673;28;20207;-80
2022/10/05 05:18:41;;;;;;;2.63;2.40;;;;;;;11.84;77.68;96172.53;4999215;28;20297;-80
2022/10/05 05:21:21;;;;;;;3.23;2.13;;;;;;;11.90;77.50;96177.03;4999267;28;20683;-80
2022/10/05 05:23:56;;;;;;;3.90;1.60;;;;;;;11.89;77.79;96180.59;4999079;28;20211;-80
2022/10/05 05:26:28;;;;;;;1.90;1.80;;;;;;;11.83;77.08;96182.06;4998349;28;20222;-80
2022/10/05 05:29:01;;;;;;;2.03;1.83;;;;;;;11.81;77.40;96173.69;4997576;28;20213;-80
2022/10/05 05:31:40;;;;;;;10.73;8.20;;;;;;;11.86;77.20;96180.91;4997336;28;20232;-80
2022/10/05 05:34:22;;;;;;;5.20;3.30;;;;;;;11.90;77.63;96182.19;4997656;28;20230;-80
2022/10/05 05:36:57;;;;;;;2.47;2.13;;;;;;;11.95;76.92;96183.25;4995820;28;20223;-80
2022/10/05 05:39:28;;;;;;;4.30;2.00;;;;;;;12.00;76.74;96183.56;4996110;28;20355;-80
2022/10/05 05:42:00;;;;;;;1.73;1.33;;;;;;;12.02;75.86;96184.19;4996101;28;20199;-80
2022/10/05 05:44:29;;;;;;;58.23;46.07;;;;;;;12.08;75.50;96182.72;4996632;28;20571;-80
2022/10/05 05:47:01;;;;;;;25.10;22.13;;;;;;;12.04;77.15;96184.03;4995948;28;20214;-80
2022/10/05 05:49:40;;;;;;;10.83;7.87;;;;;;;12.03;77.72;96183.22;4996174;28;20775;-80
2022/10/05 05:52:14;;;;;;;5.93;3.67;;;;;;;12.09;76.91;96177.41;4995189;28;20207;-81
2022/10/05 05:54:45;;;;;;;4.67;2.10;;;;;;;12.13;76.16;96180.41;4995794;28;20207;-81
2022/10/05 05:57:15;;;;;;;5.47;2.00;;;;;;;12.17;75.86;96181.69;4995578;28;20223;-80
2022/10/05 05:59:59;;;;;;;1.90;1.67;;;;;;;12.21;75.55;96184.72;4996749;28;20188;-80
2022/10/05 06:02:30;;;;;;;5.53;2.07;;;;;;;12.25;75.77;96180.84;4994959;28;20792;-80
2022/10/05 06:05:01;;;;;;;3.10;1.70;;;;;;;12.25;75.26;96179.06;4996280;28;20586;-80
2022/10/05 06:07:30;;;;;;;3.13;1.60;;;;;;;12.31;74.84;96173.22;4996607;28;20611;-81
2022/10/05 06:10:04;;;;;;;3.70;1.70;;;;;;;12.32;74.62;96172.22;4997124;28;20191;-81
2022/10/05 06:12:34;;;;;;;1.63;1.53;;;;;;;12.50;73.79;96171.94;4997886;28;20229;-80
2022/10/05 06:15:11;;;;;;;4.60;1.53;;;;;;;12.79;72.10;96174.59;4994363;28;20211;-81
2022/10/05 06:17:43;;;;;;;2.77;1.53;;;;;;;13.11;70.77;96176.03;4993116;28;20219;-81
2022/10/05 06:20:14;;;;;;;2.13;1.60;;;;;;;13.34;70.10;96173.41;4993955;28;20195;-80
2022/10/05 06:22:45;;;;;;;2.20;2.00;;;;;;;13.45;69.58;96172.97;4997111;28;20195;-80
2022/10/05 06:25:24;;;;;;;2.03;1.57;;;;;;;13.76;67.63;96171.94;4996347;28;20191;-79
2022/10/05 06:28:08;;;;;;;1.50;1.40;;;;;;;14.11;65.86;96181.50;4994134;28;20254;-81
2022/10/05 06:30:45;;;;;;;3.43;1.50;;;;;;;14.34;64.76;96180.53;4976281;28;20204;-81
2022/10/05 06:33:22;;;;;;;2.33;1.20;;;;;;;14.65;63.68;96181.00;4994557;28;20218;-81
2022/10/05 06:36:03;;;;;;;1.37;1.10;;;;;;;14.85;62.21;96184.56;4993833;28;20191;-80
2022/10/05 06:38:52;;;;;;;2.47;1.40;;;;;;;15.03;62.04;96191.06;4995181;28;20211;-80
2022/10/05 06:41:29;;;;;;;1.92;1.42;;;;;;;15.10;62.30;96191.94;4996197;28;20202;-80
2022/10/05 06:43:58;;;;;;;2.22;1.50;;;;;;;15.23;61.03;96184.22;4995655;28;20199;-80
2022/10/05 06:46:31;;;;;;;3.00;1.40;;;;;;;15.27;59.52;96185.44;4995126;28;20609;-81
2022/10/05 06:49:13;;;;;;;1.58;1.20;;;;;;;15.44;58.19;96184.16;4997091;28;20198;-81
2022/10/05 06:51:50;;;;;;;1.45;1.20;;;;;;;15.81;57.76;96177.75;4991850;28;20195;-80
2022/10/05 06:54:39;;;;;;;1.80;1.15;;;;;;;16.21;57.47;96181.28;4997744;28;20606;-81
2022/10/05 06:57:15;;;;;;;3.08;1.00;;;;;;;16.54;56.60;96183.94;4996441;28;20243;-81
2022/10/05 06:59:51;;;;;;;1.27;1.08;;;;;;;16.73;54.87;96184.19;4994841;28;20199;-81
2022/10/05 07:02:25;;;;;;;1.63;1.23;;;;;;;17.00;54.71;96190.16;4996073;28;20708;-81
2022/10/05 07:05:16;;;;;;;1.30;1.20;;;;;;;17.19;53.88;96189.34;4993900;28;20214;-81
2022/10/05 07:07:49;;;;;;;1.50;1.10;;;;;;;17.43;53.43;96185.28;5001886;28;20226;-81
2022/10/05 07:10:31;;;;;;;1.80;0.80;;;;;;;17.45;51.51;96184.09;4999852;28;20204;-80
2022/10/05 07:13:15;;;;;;;1.17;1.08;;;;;;;17.68;52.04;96190.66;4998248;28;20239;-81
2022/10/05 07:15:44;;;;;;;1.00;0.90;;;;;;;17.83;52.32;96197.22;4996060;28;20195;-81
2022/10/05 07:18:49;;;;;;;2.13;1.30;;;;;;;17.94;50.97;96196.56;4999507;28;20207;-81
2022/10/05 07:21:24;;;;;;;1.13;1.02;;;;;;;18.06;50.71;96195.91;4976678;28;20214;-81
2022/10/05 07:23:59;;;;;;;1.23;1.10;;;;;;;18.36;50.75;96198.75;5000199;28;20195;-81
2022/10/05 07:26:32;;;;;;;1.38;1.20;;;;;;;18.63;50.38;96205.44;5001255;28;20249;-81
2022/10/05 07:29:22;;;;;;;1.15;1.10;;;;;;;18.84;49.07;96199.88;4998838;28;20200;-81
2022/10/05 07:31:58;;;;;;;2.30;0.90;;;;;;;19.08;50.14;96203.47;4988780;28;20226;-81
2022/10/05 07:34:36;;;;;;;1.10;1.00;;;;;;;19.18;48.85;96214.22;4998793;28;20218;-80
2022/10/05 07:40:02;;;;;;;1.35;1.00;;;;;;;19.53;49.73;96216.34;4984454;28;20239;-81
2022/10/05 07:42:41;;;;;;;3.10;1.10;;;;;;;19.74;48.71;96220.34;4997608;28;20200;-81
2022/10/05 07:45:18;;;;;;;1.48;1.00;;;;;;;19.95;48.61;96215.47;4997975;28;20208;-81
2022/10/05 07:47:51;;;;;;;1.27;1.17;;;;;;;20.18;48.25;96216.59;4997486;28;20695;-81
2022/10/05 07:50:23;;;;;;;1.10;1.00;;;;;;;20.48;47.34;96214.00;4996836;28;20203;-81
2022/10/05 07:52:56;;;;;;;4.20;0.98;;;;;;;20.70;47.58;96217.72;4996507;28;20214;-81
2022/10/05 07:55:25;;;;;;;1.33;1.10;;;;;;;20.89;47.16;96221.84;4995852;28;20204;-81
2022/10/05 07:58:04;;;;;;;3.92;1.35;;;;;;;21.05;45.43;96228.22;4994997;28;20211;-80
2022/10/05 08:00:48;;;;;;;2.85;1.17;;;;;;;21.27;45.88;96228.50;4990727;28;20200;-80
2022/10/05 08:03:25;;;;;;;0.98;0.90;;;;;;;21.43;45.07;96224.41;4994088;28;20235;-80
2022/10/05 08:05:51;;;;;;;2.08;1.00;;;;;;;21.71;45.76;96230.53;4991707;28;20199;-84
2022/10/05 08:08:23;;;;;;;2.75;1.10;;;;;;;21.92;45.61;96229.13;4994006;28;20191;-83
2022/10/05 08:10:57;;;;;;;3.10;1.10;;;;;;;21.90;43.31;96231.19;4996560;28;20199;-81
2022/10/05 08:13:31;;;;;;;3.60;1.02;;;;;;;21.88;43.32;96230.63;4995433;28;20211;-81
2022/10/05 08:16:01;;;;;;;1.30;1.00;;;;;;;21.78;43.57;96233.03;4996285;28;20223;-80
2022/10/05 08:18:42;;;;;;;0.88;0.88;;;;;;;21.68;42.76;96231.00;4995421;28;20575;-80
2022/10/05 08:21:11;;;;;;;0.90;0.90;;;;;;;21.66;42.98;96230.44;4995037;28;20586;-79
2022/10/05 08:23:46;;;;;;;2.47;0.90;;;;;;;21.86;43.05;96230.06;4996091;28;20274;-80
2022/10/05 08:26:23;;;;;;;2.33;1.00;;;;;;;22.02;43.17;96239.06;4994705;28;20211;-80
2022/10/05 08:29:00;;;;;;;1.10;1.00;;;;;;;22.15;42.86;96241.41;4994605;28;20202;-79
2022/10/05 08:31:32;;;;;;;2.45;0.93;;;;;;;22.36;43.70;96242.59;4995846;28;20698;-81
2022/10/05 08:34:08;;;;;;;3.15;1.02;;;;;;;22.54;43.99;96241.59;4996371;28;20223;-81
2022/10/05 08:36:52;;;;;;;1.10;1.00;;;;;;;22.50;43.20;96237.88;4994906;28;20231;-81
2022/10/05 08:39:20;;;;;;;1.48;1.20;;;;;;;22.61;44.35;96248.31;4994305;28;20195;-81
2022/10/05 08:42:02;;;;;;;1.48;1.10;;;;;;;22.75;43.70;96243.53;4992699;28;20299;-81
2022/10/05 08:44:56;;;;;;;1.60;1.10;;;;;;;22.92;43.02;96254.09;4990634;28;20195;-81
2022/10/05 08:47:45;;;;;;;1.35;1.15;;;;;;;23.00;42.30;96251.88;4995420;28;20645;-81
2022/10/05 08:50:23;;;;;;;4.07;1.20;;;;;;;23.01;42.72;96250.06;4988546;28;20206;-81
2022/10/05 08:53:18;;;;;;;0.93;0.93;;;;;;;22.93;41.52;96245.97;4996622;28;20209;-81
2022/10/05 08:56:01;;;;;;;1.38;1.00;;;;;;;23.05;43.11;96245.94;4976963;28;20692;-81
2022/10/05 08:59:01;;;;;;;1.42;0.90;;;;;;;23.00;40.69;96238.75;4976607;28;20271;-81
2022/10/05 09:01:46;;;;;;;1.13;0.85;;;;;;;23.17;40.46;96236.13;4989420;28;20207;-81
2022/10/05 09:04:26;;;;;;;1.45;0.90;;;;;;;23.34;41.05;96244.00;4996550;28;20191;-81
2022/10/05 09:07:20;;;;;;;0.98;0.98;;;;;;;23.45;41.03;96234.44;4995909;28;20242;-81
2022/10/05 09:10:10;;;;;;;1.17;1.08;;;;;;;23.42;40.90;96241.78;4995530;28;20203;-81
2022/10/05 09:12:55;;;;;;;1.65;0.90;;;;;;;23.23;39.92;96234.38;4995735;28;20226;-81
2022/10/05 09:15:42;;;;;;;1.08;1.00;;;;;;;23.02;41.01;96234.06;4996025;28;20223;-81
2022/10/05 09:18:45;;;;;;;1.23;1.05;;;;;;;22.96;41.25;96235.00;4995467;28;20748;-81
2022/10/05 09:21:20;;;;;;;4.85;1.02;;;;;;;22.82;42.70;96235.56;4996740;28;20270;-81
2022/10/05 09:23:53;;;;;;;1.13;1.00;;;;;;;22.79;43.06;96228.16;5000614;28;20213;-81
2022/10/05 09:26:43;;;;;;;1.67;0.95;;;;;;;22.66;42.61;96237.91;5000133;28;20231;-81
2022/10/05 09:29:47;;;;;;;2.17;1.30;;;;;;;22.59;44.31;96242.50;4979034;28;20680;-81
2022/10/05 09:32:35;;;;;;;1.10;1.00;;;;;;;22.57;44.09;96236.69;4980541;28;20234;-81
2022/10/05 09:35:21;;;;;;;2.60;1.50;;;;;;;22.46;44.00;96244.63;4982378;28;20228;-81
2022/10/05 09:38:22;;;;;;;1.15;1.13;;;;;;;22.40;43.91;96233.22;4999302;28;20231;-81
2022/10/05 09:41:25;;;;;;;3.83;1.65;;;;;;;22.40;45.66;96243.72;4936032;29;20205;-81
2022/10/05 09:44:20;;;;;;;1.40;1.30;;;;;;;22.35;44.89;96241.78;4994931;28;20202;-81
2022/10/05 09:47:02;;;;;;;1.30;1.20;;;;;;;22.33;44.98;96243.84;4994429;28;20223;-81
2022/10/05 09:49:59;;;;;;;3.25;1.70;;;;;;;22.30;45.06;96240.91;4995769;28;20192;-80
2022/10/05 09:53:04;;;;;;;1.77;1.38;;;;;;;22.31;44.48;96243.31;4996439;28;20203;-80
2022/10/05 09:56:08;;;;;;;2.65;1.40;;;;;;;22.28;44.80;96237.72;4964409;28;20366;-81
2022/10/05 09:58:59;;;;;;;3.33;1.50;;;;;;;22.35;45.29;96238.38;4971794;28;20196;-81
2022/10/05 10:01:36;;;;;;;4.07;1.05;;;;;;;22.27;44.38;96231.69;4993947;28;20203;-80
2022/10/05 10:04:30;;;;;;;1.20;1.08;;;;;;;22.17;44.87;96230.66;4995468;28;20206;-80
2022/10/05 10:07:39;;;;;;;1.42;1.02;;;;;;;22.23;44.34;96227.94;4995875;28;20572;-81
2022/10/05 10:10:51;;;;;;;2.90;1.10;;;;;;;22.33;44.70;96232.56;4995856;28;20206;-81
2022/10/05 10:13:44;;;;;;;1.17;1.10;;;;;;;22.32;44.38;96229.13;4917897;29;20403;-81
2022/10/05 10:16:18;;;;;;;1.95;1.20;;;;;;;22.37;44.63;96225.81;4924615;29;20527;-81
2022/10/05 10:19:00;;;;;;;1.13;1.02;;;;;;;22.29;45.12;96232.25;4988080;28;20691;-81
2022/10/05 10:21:44;;;;;;;1.20;1.00;;;;;;;22.24;44.69;96231.34;5002544;28;20203;-81
2022/10/05 10:24:21;;;;;;;0.93;0.93;;;;;;;22.21;45.80;96229.97;5000508;28;20196;-81
2022/10/05 10:27:04;;;;;;;2.60;1.20;;;;;;;22.20;46.16;96235.47;5000873;28;20215;-81
2022/10/05 10:30:06;;;;;;;1.15;1.05;;;;;;;22.09;45.83;96233.69;5000331;28;20215;-81
2022/10/05 10:33:10;;;;;;;1.48;1.38;;;;;;;22.09;46.23;96223.19;4998283;28;20195;-81
2022/10/05 10:35:38;;;;;;;1.65;1.30;;;;;;;22.10;46.77;96227.41;5000133;28;20207;-79
2022/10/05 10:38:46;;;;;;;1.73;1.27;;;;;;;22.15;46.56;96237.97;4995161;28;20234;-80
2022/10/05 10:41:41;;;;;;;2.25;1.23;;;;;;;22.16;46.61;96227.25;4983054;28;20191;-80
2022/10/05 10:44:38;;;;;;;2.40;1.40;;;;;;;22.11;46.42;96231.63;4996162;28;20208;-80
2022/10/05 10:47:32;;;;;;;1.88;1.10;;;;;;;22.00;46.10;96217.50;4995117;28;20225;-80
2022/10/05 10:50:28;;;;;;;1.33;1.23;;;;;;;22.00;46.16;96220.91;4990739;28;20216;-80
2022/10/05 10:53:08;;;;;;;3.25;1.40;;;;;;;21.94;46.09;96221.00;5003703;28;20199;-80
2022/10/05 10:55:44;;;;;;;1.50;1.25;;;;;;;22.02;46.82;96223.31;4996743;28;20230;-80
2022/10/05 10:58:42;;;;;;;1.20;1.10;;;;;;;21.92;46.09;96226.50;4996425;28;20198;-80
2022/10/05 11:01:29;;;;;;;1.15;1.00;;;;;;;21.82;46.49;96221.06;4996185;28;20196;-80
2022/10/05 11:04:15;;;;;;;1.20;1.10;;;;;;;21.73;46.73;96214.59;4993429;28;20195;-82
2022/10/05 11:07:15;;;;;;;2.15;1.15;;;;;;;21.78;46.61;96211.25;4990825;28;20218;-82
2022/10/05 11:10:24;;;;;;;1.85;1.02;;;;;;;21.67;46.99;96210.25;4991255;28;20198;-82
2022/10/05 11:13:21;;;;;;;2.28;1.20;;;;;;;21.62;47.08;96205.69;4993672;28;20199;-82
2022/10/05 11:16:27;;;;;;;1.55;1.00;;;;;;;21.60;47.01;96204.34;4991354;28;20859;-82
2022/10/05 11:19:29;;;;;;;1.55;1.27;;;;;;;21.63;46.72;96209.13;4989629;28;20195;-83
2022/10/05 11:22:12;;;;;;;1.70;1.10;;;;;;;21.55;47.11;96202.38;4982331;28;20191;-83
2022/10/05 11:25:19;;;;;;;1.45;1.10;;;;;;;21.64;47.54;96200.22;4989088;28;20198;-82
2022/10/05 11:28:03;;;;;;;1.35;1.20;;;;;;;21.73;47.31;96184.97;4918003;28;20724;-82
2022/10/05 11:31:05;;;;;;;1.20;1.10;;;;;;;21.88;47.97;96180.00;4990315;28;20217;-82
2022/10/05 11:34:16;;;;;;;1.10;1.02;;;;;;;22.01;47.62;96183.19;4975736;28;20195;-82
2022/10/05 11:37:10;;;;;;;4.40;1.10;;;;;;;22.05;47.61;96178.25;4984341;28;20234;-82
2022/10/05 11:39:43;;;;;;;1.63;1.20;;;;;;;22.07;47.48;96178.03;4988965;28;20210;-82
2022/10/05 11:42:38;;;;;;;1.77;1.48;;;;;;;22.03;47.75;96177.69;4990153;28;20202;-82
2022/10/05 11:45:20;;;;;;;2.80;1.10;;;;;;;;;;4992470;28;20676;-80
2022/10/05 11:48:06;;;;;;;2.40;1.30;;;;;;;22.01;46.76;96175.31;4994911;28;20220;-80
2022/10/05 11:50:39;;;;;;;1.58;1.10;;;;;;;22.11;46.96;96172.09;4995952;28;20738;-79
2022/10/05 11:53:14;;;;;;;1.00;0.93;;;;;;;22.17;46.80;96165.09;4995894;28;20201;-80
2022/10/05 11:55:44;;;;;;;1.70;1.00;;;;;;;22.21;47.52;96163.59;4993522;28;20219;-79
2022/10/05 11:58:15;;;;;;;1.45;1.13;;;;;;;22.24;47.90;96157.88;4999613;28;20288;-80
2022/10/05 12:00:47;;;;;;;1.45;1.23;;;;;;;22.27;46.93;96162.66;4991876;28;20203;-80
2022/10/05 12:03:37;;;;;;;1.77;1.10;;;;;;;22.26;45.40;96150.59;4999206;28;20586;-80
2022/10/05 12:06:26;;;;;;;2.28;1.08;;;;;;;22.28;45.58;96151.94;4999805;28;20219;-80
2022/10/05 12:09:08;;;;;;;1.30;0.93;;;;;;;22.42;46.27;96154.25;4994889;28;20207;-80
2022/10/05 12:11:52;;;;;;;2.35;0.98;;;;;;;22.48;45.44;96146.25;4999565;28;20195;-80
2022/10/05 12:14:32;;;;;;;2.92;1.33;;;;;;;22.54;45.82;96142.66;4997335;28;20226;-80
2022/10/05 12:17:04;;;;;;;3.60;1.15;;;;;;;22.48;45.60;96142.81;4998691;28;20366;-80
2022/10/05 12:19:35;;;;;;;2.15;1.10;;;;;;;22.37;45.97;96141.84;4999436;28;20209;-79
2022/10/05 12:22:14;;;;;;;3.63;1.40;;;;;;;22.39;46.81;96134.53;4996583;28;20599;-80
2022/10/05 12:25:00;;;;;;;1.10;1.10;;;;;;;22.43;46.89;96134.84;4992390;28;20187;-79
2022/10/05 12:27:31;;;;;;;1.15;0.88;;;;;;;22.38;47.29;96133.72;4989156;28;20215;-81
2022/10/05 12:30:03;;;;;;;1.55;1.25;;;;;;;22.38;47.05;96138.19;4997693;28;20211;-81
2022/10/05 12:32:37;;;;;;;1.52;1.17;;;;;;;22.22;46.47;96126.63;5000234;28;20203;-81